createdAt,value
2019-03-09T00:01:10.996Z,100931.18
2019-03-09T00:03:42.013Z,100919.85
2019-03-09T00:06:13.626Z,100913.97
2019-03-09T00:08:44.711Z,100915.91
2019-03-09T00:11:15.653Z,100932.61
2019-03-09T00:13:46.590Z,100917.17
2019-03-09T00:16:18.520Z,100918.56
2019-03-09T00:18:52.240Z,100927.58
2019-03-09T00:21:23.201Z,100919.83
2019-03-09T00:23:58.404Z,100908.11
2019-03-09T00:26:46.704Z,100908.00
2019-03-09T00:29:19.466Z,100902.88
2019-03-09T00:31:52.050Z,100903.33
2019-03-09T00:34:22.900Z,100899.75
2019-03-09T00:36:53.830Z,100906.58
2019-03-09T00:39:24.761Z,100892.95
2019-03-09T00:41:55.705Z,100889.84
2019-03-09T00:44:26.649Z,100874.83
2019-03-09T00:46:57.573Z,100874.19
2019-03-09T00:49:28.727Z,100888.45
2019-03-09T00:51:59.619Z,100889.22
2019-03-09T00:54:30.608Z,100889.22
2019-03-09T00:57:01.843Z,100878.77
2019-03-09T00:59:33.661Z,100887.86
2019-03-09T01:02:04.558Z,100878.84
2019-03-09T01:04:35.485Z,100875.91
2019-03-09T01:07:06.464Z,100879.35
2019-03-09T01:09:37.469Z,100883.41
2019-03-09T01:12:08.446Z,100893.12
2019-03-09T01:14:39.465Z,100898.54
2019-03-09T01:17:10.440Z,100863.60
2019-03-09T01:19:41.426Z,100863.60
2019-03-09T01:22:12.409Z,100885.23
2019-03-09T01:24:43.261Z,100886.16
2019-03-09T01:27:14.297Z,100905.89
2019-03-09T01:29:45.291Z,100905.89
2019-03-09T01:32:16.272Z,100910.78
2019-03-09T01:34:47.187Z,100908.67
2019-03-09T01:37:18.090Z,100906.36
2019-03-09T01:39:49.038Z,100902.56
2019-03-09T01:42:20.099Z,100913.70
2019-03-09T01:44:51.056Z,100913.70
2019-03-09T01:47:21.962Z,100904.34
2019-03-09T01:49:52.824Z,100899.59
2019-03-09T01:52:23.732Z,100901.64
2019-03-09T01:54:54.696Z,100910.20
2019-03-09T01:57:25.717Z,100900.88
2019-03-09T01:59:56.566Z,100913.86
2019-03-09T02:02:27.420Z,100907.36
2019-03-09T02:04:58.350Z,100906.48
2019-03-09T02:07:29.262Z,100905.30
2019-03-09T02:10:00.401Z,100901.86
2019-03-09T02:12:31.350Z,100900.98
2019-03-09T02:15:02.308Z,100893.46
2019-03-09T02:17:34.670Z,100891.70
2019-03-09T02:20:08.337Z,100891.70
2019-03-09T02:22:39.275Z,100890.09
2019-03-09T02:25:11.394Z,100888.37
2019-03-09T02:27:42.318Z,100888.02
2019-03-09T02:30:19.681Z,100897.99
2019-03-09T02:32:50.638Z,100898.72
2019-03-09T02:35:21.592Z,100883.08
2019-03-09T02:37:53.652Z,100883.08
2019-03-09T02:40:26.239Z,100880.02
2019-03-09T02:42:57.261Z,100869.81
2019-03-09T02:45:29.899Z,100880.41
2019-03-09T02:48:00.887Z,100878.77
2019-03-09T02:50:31.822Z,100881.28
2019-03-09T02:53:02.757Z,100882.30
2019-03-09T02:55:33.709Z,100884.02
2019-03-09T02:58:04.673Z,100884.65
2019-03-09T03:00:37.285Z,100888.86
2019-03-09T03:03:09.333Z,100894.63
2019-03-09T03:05:40.322Z,100877.13
2019-03-09T03:08:11.367Z,100876.17
2019-03-09T03:10:42.317Z,100881.47
2019-03-09T03:13:13.254Z,100877.52
2019-03-09T03:15:44.111Z,100872.62
2019-03-09T03:18:15.025Z,100864.99
2019-03-09T03:20:45.981Z,100872.11
2019-03-09T03:23:17.128Z,100868.64
2019-03-09T03:25:48.083Z,100881.69
2019-03-09T03:28:18.998Z,100868.17
2019-03-09T03:30:49.925Z,100868.17
2019-03-09T03:33:20.933Z,100880.02
2019-03-09T03:35:51.961Z,100889.22
2019-03-09T03:38:22.940Z,100888.86
2019-03-09T03:40:53.807Z,100885.23
2019-03-09T03:43:24.834Z,100896.20
2019-03-09T03:45:55.709Z,100892.30
2019-03-09T03:48:26.614Z,100881.69
2019-03-09T03:50:57.597Z,100881.47
2019-03-09T03:53:28.645Z,100880.29
2019-03-09T03:55:59.699Z,100880.95
2019-03-09T03:58:30.564Z,100884.87
2019-03-09T04:01:01.511Z,100879.34
2019-03-09T04:03:32.450Z,100885.81
2019-03-09T04:06:03.308Z,100881.28
2019-03-09T04:08:34.240Z,100874.15
2019-03-09T04:11:06.144Z,100870.16
2019-03-09T04:13:37.331Z,100879.98
2019-03-09T04:16:08.282Z,100887.90
2019-03-09T04:18:39.200Z,100883.36
2019-03-09T04:21:10.058Z,100885.73
2019-03-09T04:23:41.058Z,100885.08
2019-03-09T04:26:12.140Z,100885.19
2019-03-09T04:28:43.056Z,100884.52
2019-03-09T04:31:13.953Z,100880.66
2019-03-09T04:33:44.944Z,100884.46
2019-03-09T04:36:15.812Z,100904.71
2019-03-09T04:38:46.671Z,100905.44
2019-03-09T04:41:17.672Z,100901.53
2019-03-09T04:43:48.704Z,100900.80
2019-03-09T04:46:19.588Z,100904.50
2019-03-09T04:48:50.579Z,100904.42
2019-03-09T04:51:21.450Z,100921.27
2019-03-09T04:53:52.329Z,100916.52
2019-03-09T04:56:23.297Z,100901.79
2019-03-09T04:58:54.252Z,100909.75
2019-03-09T05:01:25.126Z,100918.75
2019-03-09T05:03:59.380Z,100921.12
2019-03-09T05:06:30.332Z,100921.74
2019-03-09T05:09:07.247Z,100922.88
2019-03-09T05:11:38.106Z,100922.00
2019-03-09T05:14:10.038Z,100915.23
2019-03-09T05:16:41.055Z,100921.48
2019-03-09T05:19:11.976Z,100904.87
2019-03-09T05:21:42.912Z,100907.95
2019-03-09T05:24:13.957Z,100919.42
2019-03-09T05:26:45.118Z,100934.56
2019-03-09T05:29:16.148Z,100930.91
2019-03-09T05:31:47.127Z,100932.91
2019-03-09T05:34:18.268Z,100932.91
2019-03-09T05:36:49.298Z,100924.80
2019-03-09T05:39:20.221Z,100925.41
2019-03-09T05:41:51.090Z,100938.30
2019-03-09T05:44:22.088Z,100938.90
2019-03-09T05:46:52.996Z,100939.70
2019-03-09T05:49:23.918Z,100936.51
2019-03-09T05:52:19.546Z,100945.84
2019-03-09T05:54:50.543Z,100938.45
2019-03-09T05:57:21.499Z,100939.65
2019-03-09T05:59:52.566Z,100934.38
2019-03-09T06:02:23.479Z,100931.04
2019-03-09T06:04:54.391Z,100933.19
2019-03-09T06:07:25.323Z,100933.19
2019-03-09T06:09:56.263Z,100952.20
2019-03-09T06:12:27.211Z,100938.61
2019-03-09T06:14:58.137Z,100920.31
2019-03-09T06:17:29.101Z,100908.88
2019-03-09T06:20:00.512Z,100916.27
2019-03-09T06:22:31.627Z,100924.53
2019-03-09T06:25:02.624Z,100933.70
2019-03-09T06:27:33.493Z,100937.03
2019-03-09T06:30:04.765Z,100943.59
2019-03-09T06:32:38.911Z,100948.33
2019-03-09T06:35:15.269Z,100952.26
2019-03-09T06:38:07.645Z,100963.11
2019-03-09T06:40:38.666Z,100947.49
2019-03-09T06:43:09.616Z,100944.98
2019-03-09T06:45:40.559Z,100944.15
2019-03-09T06:48:11.486Z,100942.16
2019-03-09T06:50:42.486Z,100935.52
2019-03-09T06:53:13.521Z,100935.02
2019-03-09T06:55:44.507Z,100929.45
2019-03-09T06:58:15.480Z,100931.95
2019-03-09T07:00:46.542Z,100944.80
2019-03-09T07:03:17.454Z,100960.30
2019-03-09T07:05:48.387Z,100953.78
2019-03-09T07:08:19.411Z,100954.66
2019-03-09T07:10:50.430Z,100968.77
2019-03-09T07:13:21.436Z,100968.10
2019-03-09T07:15:52.422Z,100958.16
2019-03-09T07:18:23.427Z,100955.86
2019-03-09T07:20:54.459Z,100946.41
2019-03-09T07:23:25.466Z,100941.67
2019-03-09T07:25:56.395Z,100941.86
2019-03-09T07:28:27.286Z,100943.16
2019-03-09T07:30:58.280Z,100943.28
2019-03-09T07:33:29.220Z,100944.65
2019-03-09T07:36:00.427Z,100948.75
2019-03-09T07:38:31.401Z,100951.08
2019-03-09T07:41:02.819Z,100958.02
2019-03-09T07:43:34.424Z,100966.11
2019-03-09T07:46:05.552Z,100957.25
2019-03-09T07:48:36.850Z,100955.00
2019-03-09T07:51:08.040Z,100946.67
2019-03-09T07:53:39.099Z,100928.32
2019-03-09T07:56:10.118Z,100924.75
2019-03-09T07:58:41.176Z,100917.84
2019-03-09T08:01:12.322Z,100911.13
2019-03-09T08:03:43.451Z,100915.23
2019-03-09T08:06:14.574Z,100918.12
2019-03-09T08:08:45.627Z,100923.29
2019-03-09T08:11:16.596Z,100912.88
2019-03-09T08:13:49.331Z,100914.55
2019-03-09T08:16:20.401Z,100917.22
2019-03-09T08:18:51.385Z,100917.52
2019-03-09T08:21:22.483Z,100920.09
2019-03-09T08:23:53.538Z,100911.27
2019-03-09T08:26:24.586Z,100907.22
2019-03-09T08:28:55.724Z,100893.61
2019-03-09T08:31:26.777Z,100883.30
2019-03-09T08:33:57.911Z,100886.62
2019-03-09T08:36:28.948Z,100881.41
2019-03-09T08:39:00.114Z,100888.40
2019-03-09T08:41:31.323Z,100881.05
2019-03-09T08:44:02.390Z,100879.72
2019-03-09T08:46:33.430Z,100884.00
2019-03-09T08:49:04.468Z,100885.01
2019-03-09T08:51:35.703Z,100877.50
2019-03-09T08:54:06.733Z,100871.52
2019-03-09T08:56:37.751Z,100880.20
2019-03-09T08:59:08.767Z,100871.41
2019-03-09T09:01:40.406Z,100880.81
2019-03-09T09:04:11.401Z,100871.71
2019-03-09T09:06:42.469Z,100857.48
2019-03-09T09:09:13.653Z,100855.70
2019-03-09T09:11:44.630Z,100860.55
2019-03-09T09:14:15.744Z,100875.58
2019-03-09T09:16:46.837Z,100888.16
2019-03-09T09:19:17.926Z,100895.42
2019-03-09T09:21:48.896Z,100917.94
2019-03-09T09:24:20.142Z,100951.00
2019-03-09T09:26:51.305Z,100941.77
2019-03-09T09:29:22.395Z,100937.30
2019-03-09T09:31:53.501Z,100916.30
2019-03-09T09:34:24.585Z,100922.25
2019-03-09T09:36:55.629Z,100904.63
2019-03-09T09:39:27.383Z,100890.03
2019-03-09T09:41:59.668Z,100889.42
2019-03-09T09:44:30.902Z,100903.07
2019-03-09T09:47:01.995Z,100912.50
2019-03-09T09:49:33.151Z,100900.06
2019-03-09T09:52:04.295Z,100898.70
2019-03-09T09:54:35.359Z,100879.77
2019-03-09T09:57:06.477Z,100861.60
2019-03-09T09:59:37.632Z,100877.00
2019-03-09T10:02:08.651Z,100885.97
2019-03-09T10:04:39.707Z,100851.66
2019-03-09T10:07:10.686Z,100843.13
2019-03-09T10:09:41.793Z,100825.48
2019-03-09T10:12:12.855Z,100828.45
2019-03-09T10:14:44.230Z,100848.17
2019-03-09T10:17:15.328Z,100864.30
2019-03-09T10:19:46.994Z,100857.29
2019-03-09T10:22:18.424Z,100858.84
2019-03-09T10:24:49.825Z,100841.34
2019-03-09T10:27:21.615Z,100850.98
2019-03-09T10:29:53.103Z,100877.20
2019-03-09T10:32:24.330Z,100893.57
2019-03-09T10:34:55.342Z,100905.58
2019-03-09T10:37:26.336Z,100897.80
2019-03-09T10:39:57.525Z,100898.97
2019-03-09T10:42:28.525Z,100903.02
2019-03-09T10:44:59.763Z,100898.50
2019-03-09T10:47:34.349Z,100878.14
2019-03-09T10:50:11.061Z,100894.44
2019-03-09T10:52:42.564Z,100886.18
2019-03-09T10:55:25.948Z,100891.16
2019-03-09T10:57:57.418Z,100862.23
2019-03-09T11:00:31.838Z,100862.23
2019-03-09T11:03:02.949Z,100856.03
2019-03-09T11:05:34.129Z,100869.16
2019-03-09T11:08:05.505Z,100868.44
2019-03-09T11:10:36.629Z,100854.11
2019-03-09T11:13:07.857Z,100850.03
2019-03-09T11:15:39.115Z,100832.29
2019-03-09T11:18:10.306Z,100824.39
2019-03-09T11:20:41.997Z,100819.27
2019-03-09T11:23:13.281Z,100834.45
2019-03-09T11:25:44.521Z,100860.59
2019-03-09T11:28:15.606Z,100825.05
2019-03-09T11:30:46.627Z,100804.70
2019-03-09T11:33:17.702Z,100806.22
2019-03-09T11:35:48.784Z,100810.86
2019-03-09T11:38:19.953Z,100803.98
2019-03-09T11:40:57.358Z,100812.09
2019-03-09T11:43:23.930Z,100813.02
2019-03-09T11:45:55.058Z,100813.32
2019-03-09T11:48:26.321Z,100826.90
2019-03-09T11:50:57.362Z,100796.50
2019-03-09T11:53:28.546Z,100783.27
2019-03-09T11:55:59.625Z,100775.16
2019-03-09T11:58:30.686Z,100784.78
2019-03-09T12:01:01.787Z,100787.58
2019-03-09T12:03:32.965Z,100786.83
2019-03-09T12:06:03.967Z,100785.41
2019-03-09T12:08:35.886Z,100789.67
2019-03-09T12:11:08.043Z,100780.32
2019-03-09T12:13:39.120Z,100779.27
2019-03-09T12:16:10.217Z,100778.38
2019-03-09T12:18:41.752Z,100770.64
2019-03-09T12:21:12.816Z,100769.41
2019-03-09T12:23:43.996Z,100766.97
2019-03-09T12:26:15.453Z,100769.70
2019-03-09T12:28:46.694Z,100773.88
2019-03-09T12:31:18.274Z,100780.03
2019-03-09T12:33:49.882Z,100779.20
2019-03-09T12:36:21.169Z,100773.31
2019-03-09T12:38:52.362Z,100761.89
2019-03-09T12:41:23.435Z,100761.48
2019-03-09T12:43:54.545Z,100762.89
2019-03-09T12:46:25.756Z,100763.05
2019-03-09T12:48:56.810Z,100763.14
2019-03-09T12:51:27.864Z,100762.93
2019-03-09T12:53:59.020Z,100762.58
2019-03-09T12:56:30.067Z,100765.59
2019-03-09T12:59:01.108Z,100755.37
2019-03-09T13:01:32.413Z,100757.45
2019-03-09T13:04:03.495Z,100751.56
2019-03-09T13:06:34.545Z,100752.70
2019-03-09T13:09:05.573Z,100753.41
2019-03-09T13:11:38.049Z,100759.47
2019-03-09T13:14:09.256Z,100755.29
2019-03-09T13:16:40.271Z,100749.67
2019-03-09T13:19:11.518Z,100748.97
2019-03-09T13:21:42.639Z,100747.33
2019-03-09T13:24:14.848Z,100743.14
2019-03-09T13:26:45.837Z,100746.91
2019-03-09T13:29:17.020Z,100745.06
2019-03-09T13:31:48.113Z,100744.57
2019-03-09T13:34:19.737Z,100738.95
2019-03-09T13:36:50.823Z,100744.44
2019-03-09T13:39:22.537Z,100731.44
2019-03-09T13:41:53.618Z,100736.83
2019-03-09T13:44:24.756Z,100733.03
2019-03-09T13:46:55.806Z,100731.91
2019-03-09T13:49:26.966Z,100724.58
2019-03-09T13:51:58.086Z,100719.62
2019-03-09T13:54:29.125Z,100717.09
2019-03-09T13:57:00.294Z,100706.73
2019-03-09T13:59:31.325Z,100703.31
2019-03-09T14:02:02.451Z,100703.86
2019-03-09T14:04:33.653Z,100700.75
2019-03-09T14:07:04.801Z,100687.73
2019-03-09T14:09:35.897Z,100699.27
2019-03-09T14:12:07.032Z,100694.88
2019-03-09T14:14:38.255Z,100689.94
2019-03-09T14:17:09.325Z,100689.11
2019-03-09T14:19:40.471Z,100694.42
2019-03-09T14:22:11.524Z,100689.81
2019-03-09T14:24:42.611Z,100695.06
2019-03-09T14:27:15.166Z,100688.44
2019-03-09T14:29:46.518Z,100686.55
2019-03-09T14:32:17.690Z,100689.69
2019-03-09T14:34:49.113Z,100690.27
2019-03-09T14:37:20.226Z,100685.64
2019-03-09T14:39:51.428Z,100684.53
2019-03-09T14:42:22.562Z,100682.32
2019-03-09T14:44:53.792Z,100677.70
2019-03-09T14:47:24.957Z,100671.69
2019-03-09T14:49:56.192Z,100672.52
2019-03-09T14:52:27.170Z,100672.03
2019-03-09T14:54:58.271Z,100668.95
2019-03-09T14:57:29.367Z,100666.73
2019-03-09T15:00:00.490Z,100667.39
2019-03-09T15:02:31.662Z,100663.95
2019-03-09T15:05:02.713Z,100665.30
2019-03-09T15:07:33.730Z,100663.77
2019-03-09T15:10:06.061Z,100656.39
2019-03-09T15:12:37.230Z,100661.77
2019-03-09T15:15:15.344Z,100655.92
2019-03-09T15:17:46.360Z,100658.98
2019-03-09T15:20:17.679Z,100659.80
2019-03-09T15:22:48.867Z,100661.30
2019-03-09T15:25:20.466Z,100649.52
2019-03-09T15:27:51.664Z,100652.42
2019-03-09T15:30:23.001Z,100651.99
2019-03-09T15:32:54.047Z,100648.92
2019-03-09T15:35:25.376Z,100648.22
2019-03-09T15:37:56.544Z,100640.89
2019-03-09T15:40:28.642Z,100636.11
2019-03-09T15:42:59.869Z,100638.91
2019-03-09T15:45:30.899Z,100638.72
2019-03-09T15:48:01.973Z,100639.42
2019-03-09T15:50:33.472Z,100645.04
2019-03-09T15:53:04.543Z,100638.72
2019-03-09T15:55:35.731Z,100633.40
2019-03-09T15:58:06.843Z,100637.66
2019-03-09T16:00:37.978Z,100641.54
2019-03-09T16:03:09.154Z,100634.11
2019-03-09T16:05:40.436Z,100634.83
2019-03-09T16:08:12.644Z,100631.77
2019-03-09T16:10:43.768Z,100630.88
2019-03-09T16:13:15.025Z,100629.16
2019-03-09T16:15:46.322Z,100626.78
2019-03-09T16:18:17.447Z,100621.46
2019-03-09T16:20:48.980Z,100616.09
2019-03-09T16:23:20.111Z,100618.52
2019-03-09T16:25:51.636Z,100607.05
2019-03-09T16:28:22.753Z,100608.00
2019-03-09T16:30:54.130Z,100605.72
2019-03-09T16:33:25.247Z,100604.03
2019-03-09T16:35:56.337Z,100605.08
2019-03-09T16:38:27.490Z,100608.00
2019-03-09T16:40:58.695Z,100612.81
2019-03-09T16:43:29.709Z,100611.00
2019-03-09T16:46:00.749Z,100610.30
2019-03-09T16:48:31.822Z,100606.13
2019-03-09T16:51:02.938Z,100606.75
2019-03-09T16:53:34.005Z,100599.90
2019-03-09T16:56:05.027Z,100601.00
2019-03-09T16:58:36.096Z,100601.87
2019-03-09T17:01:07.366Z,100605.67
2019-03-09T17:03:38.450Z,100609.25
2019-03-09T17:06:09.756Z,100615.18
2019-03-09T17:08:40.934Z,100611.47
2019-03-09T17:11:12.044Z,100602.27
2019-03-09T17:13:43.268Z,100608.14
2019-03-09T17:16:14.449Z,100602.52
2019-03-09T17:18:46.832Z,100597.23
2019-03-09T17:21:18.004Z,100594.68
2019-03-09T17:23:49.102Z,100590.42
2019-03-09T17:26:20.345Z,100581.51
2019-03-09T17:28:51.529Z,100581.11
2019-03-09T17:31:22.689Z,100577.96
2019-03-09T17:33:53.940Z,100578.95
2019-03-09T17:36:24.999Z,100582.63
2019-03-09T17:38:56.243Z,100579.84
2019-03-09T17:41:27.503Z,100568.23
2019-03-09T17:43:58.727Z,100560.95
2019-03-09T17:46:29.843Z,100560.95
2019-03-09T17:49:01.055Z,100561.23
2019-03-09T17:51:32.180Z,100561.94
2019-03-09T17:54:03.272Z,100566.28
2019-03-09T17:56:34.520Z,100569.06
2019-03-09T17:59:05.670Z,100570.98
2019-03-09T18:01:36.747Z,100566.52
2019-03-09T18:04:07.751Z,100563.23
2019-03-09T18:06:39.552Z,100562.03
2019-03-09T18:09:10.837Z,100565.05
2019-03-09T18:11:42.080Z,100563.90
2019-03-09T18:14:13.310Z,100561.34
2019-03-09T18:16:52.507Z,100561.86
2019-03-09T18:19:17.375Z,100553.45
2019-03-09T18:21:48.428Z,100550.90
2019-03-09T18:24:19.650Z,100550.90
2019-03-09T18:26:50.824Z,100550.81
2019-03-09T18:29:22.177Z,100546.97
2019-03-09T18:31:54.169Z,100551.88
2019-03-09T18:34:25.461Z,100549.65
2019-03-09T18:36:56.514Z,100546.61
2019-03-09T18:39:27.700Z,100546.61
2019-03-09T18:41:58.801Z,100545.91
2019-03-09T18:44:29.815Z,100539.23
2019-03-09T18:47:00.817Z,100544.77
2019-03-09T18:49:32.104Z,100544.77
2019-03-09T18:52:03.338Z,100540.47
2019-03-09T18:54:34.562Z,100539.75
2019-03-09T18:57:06.065Z,100540.80
2019-03-09T18:59:37.154Z,100535.13
2019-03-09T19:02:08.259Z,100535.13
2019-03-09T19:04:39.610Z,100530.30
2019-03-09T19:07:10.753Z,100511.23
2019-03-09T19:09:42.037Z,100521.73
2019-03-09T19:12:13.208Z,100521.73
2019-03-09T19:14:44.438Z,100524.03
2019-03-09T19:17:15.421Z,100524.03
2019-03-09T19:19:46.611Z,100518.52
2019-03-09T19:22:17.714Z,100519.20
2019-03-09T19:24:48.802Z,100517.27
2019-03-09T19:27:19.998Z,100506.98
2019-03-09T19:29:51.021Z,100504.64
2019-03-09T19:32:22.193Z,100501.13
2019-03-09T19:34:53.277Z,100496.96
2019-03-09T19:37:24.243Z,100496.96
2019-03-09T19:39:55.322Z,100497.95
2019-03-09T19:42:26.508Z,100500.66
2019-03-09T19:44:57.743Z,100494.83
2019-03-09T19:47:30.051Z,100486.27
2019-03-09T19:50:01.231Z,100494.83
2019-03-09T19:52:32.368Z,100488.91
2019-03-09T19:55:03.580Z,100481.80
2019-03-09T19:57:34.655Z,100465.14
2019-03-09T20:00:11.272Z,100465.14
2019-03-09T20:02:42.309Z,100469.75
2019-03-09T20:05:13.356Z,100455.95
2019-03-09T20:07:44.337Z,100458.80
2019-03-09T20:10:16.731Z,100458.80
2019-03-09T20:12:47.791Z,100458.03
2019-03-09T20:15:20.055Z,100460.52
2019-03-09T20:17:51.057Z,100458.23
2019-03-09T20:20:22.212Z,100447.13
2019-03-09T20:22:53.182Z,100451.86
2019-03-09T20:25:24.193Z,100478.84
2019-03-09T20:27:55.234Z,100442.97
2019-03-09T20:30:26.290Z,100442.22
2019-03-09T20:32:57.435Z,100442.22
2019-03-09T20:35:28.508Z,100434.98
2019-03-09T20:38:00.707Z,100429.81
2019-03-09T20:40:31.824Z,100420.91
2019-03-09T20:43:03.115Z,100420.91
2019-03-09T20:45:34.219Z,100417.25
2019-03-09T20:48:05.325Z,100409.52
2019-03-09T20:50:36.500Z,100401.41
2019-03-09T20:53:07.606Z,100401.41
2019-03-09T20:55:39.235Z,100397.05
2019-03-09T20:58:10.406Z,100394.38
2019-03-09T21:00:41.483Z,100400.17
2019-03-09T21:03:12.595Z,100398.50
2019-03-09T21:05:43.625Z,100385.36
2019-03-09T21:08:14.691Z,100385.58
2019-03-09T21:10:45.695Z,100372.20
2019-03-09T21:13:16.758Z,100372.20
2019-03-09T21:15:47.855Z,100366.27
2019-03-09T21:18:19.036Z,100352.69
2019-03-09T21:20:50.054Z,100349.24
2019-03-09T21:23:21.291Z,100339.75
2019-03-09T21:25:52.437Z,100327.92
2019-03-09T21:28:24.585Z,100318.36
2019-03-09T21:30:55.595Z,100320.68
2019-03-09T21:33:26.720Z,100320.58
2019-03-09T21:35:57.697Z,100326.16
2019-03-09T21:38:29.297Z,100329.03
2019-03-09T21:41:00.288Z,100333.52
2019-03-09T21:43:31.255Z,100328.67
2019-03-09T21:46:02.388Z,100324.82
2019-03-09T21:48:33.502Z,100324.13
2019-03-09T21:51:04.531Z,100318.50
2019-03-09T21:53:35.512Z,100324.03
2019-03-09T21:56:06.536Z,100315.73
2019-03-09T21:58:37.661Z,100317.92
2019-03-09T22:01:08.866Z,100308.45
2019-03-09T22:03:39.908Z,100308.59
2019-03-09T22:06:11.023Z,100310.73
2019-03-09T22:08:42.120Z,100303.95
2019-03-09T22:11:13.151Z,100305.82
2019-03-09T22:13:44.377Z,100300.61
2019-03-09T22:16:15.500Z,100297.97
2019-03-09T22:18:46.562Z,100306.55
2019-03-09T22:21:17.713Z,100300.16
2019-03-09T22:23:48.777Z,100297.02
2019-03-09T22:26:20.368Z,100293.16
2019-03-09T22:28:51.375Z,100294.40
2019-03-09T22:31:22.470Z,100286.25
2019-03-09T22:33:53.560Z,100284.87
2019-03-09T22:36:24.656Z,100278.73
2019-03-09T22:38:55.754Z,100270.36
2019-03-09T22:41:26.834Z,100270.54
2019-03-09T22:43:57.931Z,100263.25
2019-03-09T22:46:29.031Z,100263.81
2019-03-09T22:49:00.006Z,100262.67
2019-03-09T22:51:31.104Z,100254.36
2019-03-09T22:54:02.199Z,100254.77
2019-03-09T22:56:33.290Z,100258.77
2019-03-09T22:59:04.397Z,100247.67
2019-03-09T23:01:35.652Z,100256.95
2019-03-09T23:04:06.822Z,100251.92
2019-03-09T23:06:39.058Z,100259.59
2019-03-09T23:09:10.101Z,100256.80
2019-03-09T23:11:41.381Z,100253.33
2019-03-09T23:14:12.491Z,100252.64
2019-03-09T23:16:43.573Z,100252.17
2019-03-09T23:19:14.787Z,100245.91
2019-03-09T23:21:45.847Z,100246.84
2019-03-09T23:24:16.862Z,100239.88
2019-03-09T23:26:48.075Z,100238.61
2019-03-09T23:29:19.249Z,100240.09
2019-03-09T23:31:50.432Z,100236.50
2019-03-09T23:34:21.408Z,100234.05
2019-03-09T23:36:52.436Z,100234.77
2019-03-09T23:39:23.422Z,100237.81
2019-03-09T23:41:54.495Z,100235.59
2019-03-09T23:44:26.545Z,100234.61
2019-03-09T23:46:57.773Z,100225.59
2019-03-09T23:49:28.807Z,100218.38
2019-03-09T23:51:59.838Z,100222.55
2019-03-09T23:54:32.020Z,100211.85
2019-03-09T23:57:03.107Z,100215.05
2019-03-09T23:59:34.081Z,100213.12
